Weather at Melut Airport

Public forecast

Using degrees Celsius for public forecast. Weather courtesy of forecast.io.

Closest aviation weather report (METAR) to Melut Airport

Closest report is Addis Ababa Bole International Airport, 395.0 nm (731.6 km) ESE.

2024/07/20 18:00 (retrieved 34 minutes ago)

HAAB 201800Z 16005KT 9999 BKN023 SCT070 16/16 Q1026

Closest aviation forecast (TAF) to Melut Airport

Closest forecast is Bahir Dar Airport, 307.5 nm (569.5 km) ENE.

2024/07/20 16:20 (retrieved 2 hours ago)

TAF HABD 201530Z 2016/2122 34006KT 4000 TSRA OVC020